createdAt,value
2022-12-29T00:01:03.730Z,29.80
2022-12-29T00:03:31.808Z,28.80
2022-12-29T00:06:01.968Z,27.20
2022-12-29T00:08:41.977Z,28.50
2022-12-29T00:11:16.265Z,27.70
2022-12-29T00:14:03.156Z,27.60
2022-12-29T00:16:32.649Z,28.60
2022-12-29T00:19:01.245Z,29.20
2022-12-29T00:21:48.204Z,31.50
2022-12-29T00:24:27.493Z,30.40
2022-12-29T00:27:23.109Z,24.80
2022-12-29T00:30:09.800Z,25.90
2022-12-29T00:32:56.237Z,25.30
2022-12-29T00:35:24.360Z,21.60
2022-12-29T00:38:11.827Z,21.50
2022-12-29T00:40:58.280Z,24.20
2022-12-29T00:43:44.668Z,30.70
2022-12-29T00:46:19.709Z,25.70
2022-12-29T00:49:06.472Z,28.00
2022-12-29T00:51:34.474Z,33.00
2022-12-29T00:54:02.366Z,25.80
2022-12-29T00:56:30.434Z,27.30
2022-12-29T00:59:06.263Z,25.80
2022-12-29T01:01:36.086Z,25.30
2022-12-29T01:04:05.467Z,27.60
2022-12-29T01:06:34.149Z,35.20
2022-12-29T01:09:20.532Z,26.20
2022-12-29T01:12:45.803Z,25.60
2022-12-29T01:15:32.307Z,31.20
2022-12-29T01:18:00.276Z,33.10
2022-12-29T01:20:29.740Z,40.80
2022-12-29T01:22:58.309Z,27.90
2022-12-29T01:25:26.548Z,24.90
2022-12-29T01:27:54.505Z,21.70
2022-12-29T01:30:22.493Z,18.20
2022-12-29T01:32:50.465Z,20.30
2022-12-29T01:35:20.468Z,18.20
2022-12-29T01:37:48.474Z,21.70
2022-12-29T01:40:16.705Z,21.70
2022-12-29T01:42:46.120Z,20.90
2022-12-29T01:45:16.573Z,21.30
2022-12-29T01:47:51.378Z,20.60
2022-12-29T01:50:41.041Z,20.20
2022-12-29T01:53:16.856Z,20.50
2022-12-29T01:55:59.701Z,21.10
2022-12-29T01:58:35.039Z,19.90
2022-12-29T02:01:03.766Z,19.10
2022-12-29T02:03:33.709Z,22.00
2022-12-29T02:06:04.946Z,21.60
2022-12-29T02:08:32.953Z,23.50
2022-12-29T02:11:02.131Z,23.80
2022-12-29T02:13:30.966Z,27.90
2022-12-29T02:16:14.261Z,27.70
2022-12-29T02:18:56.154Z,24.20
2022-12-29T02:22:02.152Z,26.90
2022-12-29T02:24:44.773Z,21.40
2022-12-29T02:27:53.411Z,18.90
2022-12-29T02:30:31.351Z,19.10
2022-12-29T02:33:00.291Z,22.30
2022-12-29T02:35:50.039Z,21.30
2022-12-29T02:38:43.702Z,19.20
2022-12-29T02:41:24.922Z,21.00
2022-12-29T02:44:10.769Z,24.10
2022-12-29T02:46:52.776Z,24.60
2022-12-29T02:49:33.708Z,27.40
2022-12-29T02:52:07.953Z,33.90
2022-12-29T02:54:42.723Z,28.70
2022-12-29T02:57:30.724Z,24.80
2022-12-29T03:00:18.069Z,25.30
2022-12-29T03:02:56.863Z,24.30
2022-12-29T03:06:17.619Z,28.50
2022-12-29T03:09:00.295Z,24.20
2022-12-29T03:11:56.659Z,25.50
2022-12-29T03:14:43.575Z,23.70
2022-12-29T03:17:54.550Z,23.60
2022-12-29T03:20:28.501Z,26.50
2022-12-29T03:23:04.331Z,24.90
2022-12-29T03:25:41.269Z,29.50
2022-12-29T03:28:17.951Z,29.20
2022-12-29T03:30:48.285Z,31.40
2022-12-29T03:33:21.850Z,27.70
2022-12-29T03:35:53.500Z,26.90
2022-12-29T03:38:35.495Z,29.20
2022-12-29T03:41:08.978Z,30.30
2022-12-29T03:43:39.354Z,29.30
2022-12-29T03:46:07.343Z,23.60
2022-12-29T03:48:35.754Z,20.00
2022-12-29T03:51:05.102Z,31.00
2022-12-29T03:53:33.326Z,26.70
2022-12-29T03:56:01.901Z,24.40
2022-12-29T03:58:30.739Z,25.10
2022-12-29T04:01:11.047Z,24.40
2022-12-29T04:03:39.761Z,29.70
2022-12-29T04:06:08.743Z,27.60
2022-12-29T04:08:54.941Z,27.60
2022-12-29T04:11:25.189Z,28.20
2022-12-29T04:13:56.581Z,26.50
2022-12-29T04:16:26.516Z,22.60
2022-12-29T04:18:54.527Z,22.60
2022-12-29T04:21:22.459Z,25.60
2022-12-29T04:23:50.392Z,27.60
2022-12-29T04:26:18.732Z,24.90
2022-12-29T04:28:59.732Z,26.30
2022-12-29T04:34:13.132Z,26.90
2022-12-29T04:36:41.109Z,32.40
2022-12-29T04:39:09.702Z,32.80
2022-12-29T04:41:39.574Z,29.50
2022-12-29T04:44:09.695Z,26.80
2022-12-29T04:46:40.503Z,27.50
2022-12-29T04:49:28.756Z,27.00
2022-12-29T04:52:16.991Z,26.50
2022-12-29T04:54:47.338Z,23.60
2022-12-29T04:57:19.529Z,23.20
2022-12-29T04:59:52.065Z,24.80
2022-12-29T05:02:20.251Z,24.90
2022-12-29T05:04:51.109Z,29.00
2022-12-29T05:07:20.186Z,25.90
2022-12-29T05:09:49.900Z,25.70
2022-12-29T05:12:18.013Z,23.20
2022-12-29T05:15:00.181Z,23.20
2022-12-29T05:18:24.474Z,24.70
2022-12-29T05:21:10.493Z,26.20
2022-12-29T05:23:39.373Z,27.90
2022-12-29T05:26:08.062Z,24.80
2022-12-29T05:29:08.419Z,30.50
2022-12-29T05:31:36.808Z,28.80
2022-12-29T05:34:06.338Z,22.90
2022-12-29T05:36:37.652Z,20.00
2022-12-29T05:39:08.771Z,19.50
2022-12-29T05:41:37.475Z,22.40
2022-12-29T05:44:17.387Z,25.00
2022-12-29T05:46:54.823Z,26.60
2022-12-29T05:49:47.157Z,25.30
2022-12-29T05:53:24.526Z,28.90
2022-12-29T05:55:52.717Z,23.20
2022-12-29T05:58:22.019Z,22.50
2022-12-29T06:00:50.096Z,24.70
2022-12-29T06:03:18.757Z,27.00
2022-12-29T06:05:47.550Z,25.60
2022-12-29T06:08:17.169Z,27.20
2022-12-29T06:10:45.727Z,29.10
2022-12-29T06:13:13.730Z,24.70
2022-12-29T06:15:44.908Z,36.60
2022-12-29T06:18:19.701Z,23.50
2022-12-29T06:20:49.496Z,29.90
2022-12-29T06:23:19.756Z,34.60
2022-12-29T06:25:49.754Z,25.40
2022-12-29T06:28:22.487Z,26.40
2022-12-29T06:30:50.719Z,23.60
2022-12-29T06:33:22.076Z,27.30
2022-12-29T06:35:50.673Z,29.10
2022-12-29T06:38:18.702Z,29.60
2022-12-29T06:40:47.039Z,30.50
2022-12-29T06:43:34.891Z,33.50
2022-12-29T06:46:25.074Z,29.90
2022-12-29T06:48:53.057Z,36.70
2022-12-29T06:51:21.084Z,35.20
2022-12-29T06:53:49.158Z,28.30
2022-12-29T06:56:17.159Z,27.70
2022-12-29T06:58:45.195Z,27.60
2022-12-29T07:01:13.223Z,29.80
2022-12-29T07:03:45.371Z,34.50
2022-12-29T07:06:13.337Z,25.60
2022-12-29T07:08:41.488Z,20.10
2022-12-29T07:11:09.885Z,22.60
2022-12-29T07:13:38.123Z,26.70
2022-12-29T07:16:08.007Z,24.30
2022-12-29T07:18:36.610Z,33.70
2022-12-29T07:21:05.079Z,23.00
2022-12-29T07:23:33.146Z,25.20
2022-12-29T07:26:13.459Z,25.40
2022-12-29T07:28:42.868Z,21.70
2022-12-29T07:31:16.936Z,22.30
2022-12-29T07:36:15.277Z,22.00
2022-12-29T07:38:44.468Z,25.60
2022-12-29T07:41:13.847Z,27.80
2022-12-29T07:43:42.973Z,27.50
2022-12-29T07:46:54.252Z,27.50
2022-12-29T07:49:17.876Z,23.60
2022-12-29T07:51:45.828Z,22.80
2022-12-29T07:54:13.936Z,25.60
2022-12-29T07:56:41.893Z,34.10
2022-12-29T07:59:09.890Z,28.20
2022-12-29T08:01:38.223Z,34.10
2022-12-29T08:04:06.782Z,33.00
2022-12-29T08:06:35.072Z,44.60
2022-12-29T08:09:11.340Z,37.40
2022-12-29T08:11:43.885Z,33.40
2022-12-29T08:14:12.304Z,21.80
2022-12-29T08:16:40.651Z,18.80
2022-12-29T08:19:11.168Z,26.80
2022-12-29T08:21:39.565Z,31.60
2022-12-29T08:24:10.294Z,33.40
2022-12-29T08:26:38.447Z,31.30
2022-12-29T08:29:06.388Z,41.00
2022-12-29T08:31:34.402Z,31.00
2022-12-29T08:34:04.333Z,26.90
2022-12-29T08:36:32.792Z,27.80
2022-12-29T08:39:00.767Z,32.00
2022-12-29T08:41:28.853Z,30.00
2022-12-29T08:43:58.914Z,31.10
2022-12-29T08:46:28.097Z,28.10
2022-12-29T08:48:56.063Z,26.80
2022-12-29T08:51:25.093Z,25.10
2022-12-29T08:53:53.702Z,24.10
2022-12-29T08:56:22.411Z,24.40
2022-12-29T08:58:53.445Z,24.40
2022-12-29T09:01:23.296Z,23.60
2022-12-29T09:04:14.055Z,22.10
2022-12-29T09:06:40.906Z,21.80
2022-12-29T09:09:09.140Z,23.50
2022-12-29T09:11:37.135Z,26.30
2022-12-29T09:14:05.634Z,28.30
2022-12-29T09:16:34.635Z,25.10
2022-12-29T09:19:03.408Z,23.50
2022-12-29T09:21:31.870Z,33.90
2022-12-29T09:24:00.194Z,38.00
2022-12-29T09:26:28.120Z,36.10
2022-12-29T09:28:56.177Z,29.90
2022-12-29T09:31:24.194Z,28.10
2022-12-29T09:33:52.215Z,28.40
2022-12-29T09:36:20.230Z,31.20
2022-12-29T09:38:48.336Z,31.50
2022-12-29T09:41:30.868Z,31.00
2022-12-29T09:44:04.709Z,30.80
2022-12-29T09:46:41.251Z,32.30
2022-12-29T09:49:22.249Z,31.40
2022-12-29T09:51:54.239Z,30.00
2022-12-29T09:54:33.967Z,32.60
2022-12-29T09:57:02.125Z,34.50
2022-12-29T09:59:46.191Z,34.10
2022-12-29T10:02:25.028Z,29.20
2022-12-29T10:04:53.279Z,27.40
2022-12-29T10:08:03.694Z,28.70
2022-12-29T10:10:49.704Z,25.00
2022-12-29T10:13:48.196Z,26.80
2022-12-29T10:16:21.289Z,23.70
2022-12-29T10:19:06.280Z,23.90
2022-12-29T10:21:56.654Z,25.50
2022-12-29T10:24:27.766Z,24.80
2022-12-29T10:26:59.704Z,29.90
2022-12-29T10:29:40.814Z,27.30
2022-12-29T10:32:44.260Z,25.60
2022-12-29T10:35:20.275Z,28.10
2022-12-29T10:37:56.613Z,26.90
2022-12-29T10:40:30.938Z,31.50
2022-12-29T10:43:00.113Z,32.00
2022-12-29T10:45:31.692Z,37.50
2022-12-29T10:48:12.982Z,35.30
2022-12-29T10:50:44.117Z,29.30
2022-12-29T10:53:20.576Z,20.60
2022-12-29T10:55:48.691Z,17.60
2022-12-29T10:58:17.276Z,20.50
2022-12-29T11:00:54.657Z,21.80
2022-12-29T11:03:34.340Z,19.30
2022-12-29T11:06:10.083Z,21.60
2022-12-29T11:08:52.118Z,21.20
2022-12-29T11:11:27.263Z,20.10
2022-12-29T11:14:04.236Z,19.00
2022-12-29T11:16:35.353Z,20.40
2022-12-29T11:19:04.005Z,20.80
2022-12-29T11:21:34.365Z,22.10
2022-12-29T11:24:05.220Z,21.10
2022-12-29T11:26:35.255Z,24.20
2022-12-29T11:29:09.750Z,25.40
2022-12-29T11:31:42.583Z,25.50
2022-12-29T11:34:18.364Z,27.50
2022-12-29T11:36:47.457Z,28.90
2022-12-29T11:39:30.310Z,27.00
2022-12-29T11:41:59.317Z,28.50
2022-12-29T11:44:28.166Z,27.80
2022-12-29T11:46:56.301Z,26.50
2022-12-29T11:49:27.275Z,27.70
2022-12-29T11:51:58.635Z,29.20
2022-12-29T11:54:37.412Z,37.50
2022-12-29T11:57:17.211Z,41.10
2022-12-29T11:59:56.516Z,40.60
2022-12-29T12:02:45.564Z,36.50
2022-12-29T12:05:37.729Z,31.60
2022-12-29T12:08:26.159Z,26.70
2022-12-29T12:11:05.404Z,27.50
2022-12-29T12:13:44.675Z,21.60
2022-12-29T12:16:25.698Z,23.20
2022-12-29T12:18:56.437Z,22.20
2022-12-29T12:21:45.516Z,20.70
2022-12-29T12:24:32.169Z,21.20
2022-12-29T12:27:20.432Z,20.40
2022-12-29T12:30:04.146Z,17.30
2022-12-29T12:33:03.502Z,18.80
2022-12-29T12:35:45.254Z,19.10
2022-12-29T12:39:06.602Z,20.20
2022-12-29T12:41:46.938Z,18.80
2022-12-29T12:44:36.522Z,20.60
2022-12-29T12:47:04.502Z,17.00
2022-12-29T12:49:35.330Z,18.20
2022-12-29T12:52:14.517Z,19.50
2022-12-29T12:54:42.380Z,24.50
2022-12-29T12:57:34.210Z,16.30
2022-12-29T13:00:13.710Z,17.90
2022-12-29T13:03:00.905Z,19.90
2022-12-29T13:05:44.272Z,18.70
2022-12-29T13:08:39.098Z,17.20
2022-12-29T13:12:01.605Z,23.00
2022-12-29T13:14:43.703Z,13.30
2022-12-29T13:17:41.173Z,13.90
2022-12-29T13:20:27.761Z,16.30
2022-12-29T13:24:15.505Z,13.00
2022-12-29T13:26:46.221Z,16.20
2022-12-29T13:29:21.379Z,16.70
2022-12-29T13:32:13.752Z,14.00
2022-12-29T13:34:47.706Z,13.10
2022-12-29T13:37:26.985Z,15.80
2022-12-29T13:40:11.095Z,15.10
2022-12-29T13:42:39.563Z,11.60
2022-12-29T13:45:14.535Z,11.60
2022-12-29T13:48:05.555Z,12.10
2022-12-29T13:50:41.099Z,11.90
2022-12-29T13:53:31.600Z,14.60
2022-12-29T13:56:13.984Z,14.20
2022-12-29T13:58:51.579Z,20.10
2022-12-29T14:01:44.822Z,22.00
2022-12-29T14:04:24.401Z,21.10
2022-12-29T14:07:17.961Z,21.70
2022-12-29T14:09:52.876Z,19.50
2022-12-29T14:12:42.226Z,16.70
2022-12-29T14:15:10.282Z,16.30
2022-12-29T14:17:45.217Z,17.50
2022-12-29T14:20:24.392Z,19.40
2022-12-29T14:23:10.391Z,19.30
2022-12-29T14:26:01.522Z,17.80
2022-12-29T14:28:34.704Z,20.80
2022-12-29T14:31:26.698Z,20.60
2022-12-29T14:34:14.880Z,20.80
2022-12-29T14:37:03.834Z,17.40
2022-12-29T14:39:36.800Z,17.20
2022-12-29T14:42:15.367Z,18.90
2022-12-29T14:45:25.984Z,23.60
2022-12-29T14:47:55.172Z,56.40
2022-12-29T14:50:24.186Z,53.10
2022-12-29T14:53:03.956Z,28.30
2022-12-29T14:55:41.045Z,41.70
2022-12-29T14:58:29.595Z,30.20
2022-12-29T15:00:59.175Z,28.20
2022-12-29T15:03:34.148Z,29.90
2022-12-29T15:06:10.666Z,28.40
2022-12-29T15:08:51.021Z,26.90
2022-12-29T15:11:42.245Z,26.70
2022-12-29T15:14:40.711Z,28.50
2022-12-29T15:17:25.265Z,33.30
2022-12-29T15:19:54.545Z,44.20
2022-12-29T15:22:23.199Z,46.10
2022-12-29T15:24:53.233Z,45.10
2022-12-29T15:27:24.126Z,46.30
2022-12-29T15:30:00.847Z,41.40
2022-12-29T15:32:39.887Z,40.70
2022-12-29T15:35:31.124Z,44.90
2022-12-29T15:38:00.446Z,46.30
2022-12-29T15:40:31.840Z,38.70
2022-12-29T15:43:12.457Z,36.80
2022-12-29T15:45:40.515Z,56.60
2022-12-29T15:48:19.478Z,151.00
2022-12-29T15:50:48.118Z,132.90
2022-12-29T15:53:25.886Z,126.60
2022-12-29T15:55:58.347Z,76.80
2022-12-29T15:58:31.582Z,68.70
2022-12-29T16:01:01.766Z,74.90
2022-12-29T16:03:34.859Z,80.20
2022-12-29T16:06:26.310Z,84.30
2022-12-29T16:09:04.940Z,83.10
2022-12-29T16:11:34.942Z,85.30
2022-12-29T16:14:08.291Z,85.80
2022-12-29T16:16:42.617Z,76.10
2022-12-29T16:19:33.816Z,72.40
2022-12-29T16:22:04.381Z,70.80
2022-12-29T16:24:33.756Z,73.70
2022-12-29T16:27:09.049Z,66.60
2022-12-29T16:29:42.295Z,71.90
2022-12-29T16:32:29.597Z,85.80
2022-12-29T16:35:20.563Z,74.80
2022-12-29T16:38:08.204Z,65.20
2022-12-29T16:40:50.026Z,67.40
2022-12-29T16:43:42.979Z,67.00
2022-12-29T16:46:28.654Z,68.40
2022-12-29T16:48:58.149Z,62.90
2022-12-29T16:51:31.644Z,69.00
2022-12-29T16:54:01.573Z,75.80
2022-12-29T16:56:33.948Z,67.90
2022-12-29T16:59:20.565Z,60.80
2022-12-29T17:01:49.219Z,60.70
2022-12-29T17:04:17.444Z,68.20
2022-12-29T17:06:45.517Z,118.00
2022-12-29T17:09:31.949Z,74.10
2022-12-29T17:12:10.721Z,65.10
2022-12-29T17:14:48.818Z,58.50
2022-12-29T17:17:32.621Z,63.50
2022-12-29T17:20:24.956Z,69.90
2022-12-29T17:22:54.227Z,83.30
2022-12-29T17:25:31.832Z,91.10
2022-12-29T17:28:05.604Z,85.40
2022-12-29T17:30:36.205Z,80.30
2022-12-29T17:33:13.940Z,72.70
2022-12-29T17:35:42.206Z,68.40
2022-12-29T17:38:31.342Z,71.90
2022-12-29T17:40:59.700Z,72.50
2022-12-29T17:43:32.990Z,58.20
2022-12-29T17:46:07.093Z,67.20
2022-12-29T17:48:38.807Z,75.20
2022-12-29T17:51:06.967Z,81.10
2022-12-29T17:53:35.192Z,92.80
2022-12-29T17:56:03.348Z,102.10
2022-12-29T17:58:33.202Z,91.10
2022-12-29T18:01:03.271Z,93.10
2022-12-29T18:03:35.061Z,94.00
2022-12-29T18:06:08.482Z,94.90
2022-12-29T18:08:38.805Z,93.60
2022-12-29T18:11:21.618Z,97.20
2022-12-29T18:13:50.189Z,89.10
2022-12-29T18:16:18.448Z,85.70
2022-12-29T18:18:51.730Z,115.40
2022-12-29T18:21:33.939Z,86.90
2022-12-29T18:24:02.442Z,80.10
2022-12-29T18:26:35.935Z,73.30
2022-12-29T18:29:03.930Z,66.30
2022-12-29T18:31:34.233Z,66.20
2022-12-29T18:34:12.800Z,64.60
2022-12-29T18:36:40.878Z,69.10
2022-12-29T18:39:08.799Z,64.70
2022-12-29T18:41:37.361Z,64.60
2022-12-29T18:44:05.583Z,63.00
2022-12-29T18:46:33.610Z,65.60
2022-12-29T18:49:01.727Z,83.00
2022-12-29T18:51:30.115Z,92.60
2022-12-29T18:54:48.567Z,96.90
2022-12-29T18:57:17.803Z,82.30
2022-12-29T18:59:46.202Z,77.80
2022-12-29T19:02:17.776Z,74.70
2022-12-29T19:04:48.925Z,80.50
2022-12-29T19:07:20.979Z,89.60
2022-12-29T19:09:48.925Z,91.50
2022-12-29T19:12:22.228Z,89.10
2022-12-29T19:14:53.234Z,87.40
2022-12-29T19:17:43.138Z,88.40
2022-12-29T19:20:26.617Z,79.80
2022-12-29T19:22:56.283Z,71.00
2022-12-29T19:25:25.139Z,74.70
2022-12-29T19:27:53.528Z,90.40
2022-12-29T19:30:21.748Z,94.40
2022-12-29T19:32:54.978Z,90.00
2022-12-29T19:35:24.417Z,81.20
2022-12-29T19:37:53.045Z,81.10
2022-12-29T19:40:23.683Z,79.70
2022-12-29T19:42:52.123Z,76.50
2022-12-29T19:45:20.926Z,77.20
2022-12-29T19:47:52.506Z,78.80
2022-12-29T19:50:25.499Z,85.20
2022-12-29T19:53:05.925Z,79.80
2022-12-29T19:55:34.498Z,80.30
2022-12-29T19:58:02.588Z,76.60
2022-12-29T20:00:30.897Z,76.60
2022-12-29T20:02:59.233Z,80.20
2022-12-29T20:05:27.496Z,90.40
2022-12-29T20:07:55.413Z,89.80
2022-12-29T20:10:23.472Z,82.70
2022-12-29T20:12:51.384Z,86.10
2022-12-29T20:15:19.982Z,81.00
2022-12-29T20:18:15.749Z,78.80
2022-12-29T20:20:36.152Z,70.40
2022-12-29T20:23:04.235Z,76.30
2022-12-29T20:25:48.629Z,71.30
2022-12-29T20:28:17.153Z,74.60
2022-12-29T20:30:45.516Z,80.00
2022-12-29T20:33:13.739Z,81.20
2022-12-29T20:35:41.721Z,73.00
2022-12-29T20:38:09.636Z,74.70
2022-12-29T20:40:44.098Z,72.50
2022-12-29T20:43:15.602Z,72.00
2022-12-29T20:45:43.796Z,81.50
2022-12-29T20:48:11.944Z,75.20
2022-12-29T20:50:40.319Z,93.00
2022-12-29T20:53:08.391Z,87.00
2022-12-29T20:55:40.827Z,71.10
2022-12-29T20:58:25.418Z,75.10
2022-12-29T21:00:54.597Z,85.80
2022-12-29T21:03:23.255Z,76.60
2022-12-29T21:05:52.688Z,237.10
2022-12-29T21:08:22.099Z,308.10
2022-12-29T21:10:51.108Z,272.60
2022-12-29T21:13:19.370Z,298.30
2022-12-29T21:15:48.110Z,241.80
2022-12-29T21:18:16.105Z,213.60
2022-12-29T21:20:44.328Z,325.90
2022-12-29T21:23:15.744Z,271.80
2022-12-29T21:25:44.171Z,211.70
2022-12-29T21:28:12.392Z,141.90
2022-12-29T21:30:40.743Z,142.20
2022-12-29T21:33:08.804Z,145.90
2022-12-29T21:35:38.884Z,136.20
2022-12-29T21:38:07.964Z,97.10
2022-12-29T21:40:37.461Z,92.10
2022-12-29T21:43:06.295Z,79.40
2022-12-29T21:45:34.489Z,84.70
2022-12-29T21:48:23.610Z,79.80
2022-12-29T21:51:12.730Z,77.40
2022-12-29T21:53:43.839Z,69.00
2022-12-29T21:56:14.734Z,69.20
2022-12-29T21:59:03.580Z,74.70
2022-12-29T22:01:53.063Z,74.60
2022-12-29T22:04:42.767Z,82.00
2022-12-29T22:07:31.383Z,72.10
2022-12-29T22:10:17.961Z,75.90
2022-12-29T22:12:57.950Z,72.30
2022-12-29T22:15:27.896Z,67.10
2022-12-29T22:17:56.220Z,65.20
2022-12-29T22:20:27.186Z,63.40
2022-12-29T22:22:55.770Z,56.80
2022-12-29T22:25:24.242Z,69.50
2022-12-29T22:27:58.541Z,66.60
2022-12-29T22:30:28.383Z,84.90
2022-12-29T22:32:59.171Z,82.00
2022-12-29T22:35:27.781Z,76.70
2022-12-29T22:37:55.740Z,64.00
2022-12-29T22:40:24.313Z,69.10
2022-12-29T22:42:52.441Z,68.80
2022-12-29T22:45:20.522Z,60.50
2022-12-29T22:47:48.427Z,75.00
2022-12-29T22:50:16.486Z,64.60
2022-12-29T22:52:44.519Z,69.00
2022-12-29T22:55:12.494Z,67.10
2022-12-29T22:57:40.593Z,68.70
2022-12-29T23:00:09.328Z,60.80
2022-12-29T23:02:37.677Z,59.00
2022-12-29T23:05:06.814Z,63.40
2022-12-29T23:07:35.891Z,64.30
2022-12-29T23:10:05.283Z,62.80
2022-12-29T23:12:33.294Z,62.30
2022-12-29T23:15:01.394Z,67.10
2022-12-29T23:17:29.418Z,65.50
2022-12-29T23:19:57.366Z,70.00
2022-12-29T23:22:25.355Z,70.10
2022-12-29T23:24:53.292Z,70.40
2022-12-29T23:27:21.198Z,63.00
2022-12-29T23:29:49.176Z,61.30
2022-12-29T23:32:17.185Z,65.40
2022-12-29T23:34:45.163Z,65.90
2022-12-29T23:37:13.265Z,62.20
2022-12-29T23:39:41.223Z,64.20
2022-12-29T23:42:09.085Z,59.20
2022-12-29T23:44:37.069Z,54.40
2022-12-29T23:47:05.052Z,55.00
2022-12-29T23:49:33.159Z,61.40
2022-12-29T23:52:01.349Z,57.70
2022-12-29T23:54:29.288Z,56.70
2022-12-29T23:56:57.345Z,58.70
2022-12-29T23:59:25.364Z,53.30
